createdAt,value
2023-01-04T00:01:24.008Z,20.87
2023-01-04T00:03:52.792Z,23.37
2023-01-04T00:06:22.588Z,24.37
2023-01-04T00:08:50.501Z,22.73
2023-01-04T00:11:20.718Z,21.73
2023-01-04T00:13:50.604Z,27.10
2023-01-04T00:16:20.779Z,22.20
2023-01-04T00:18:49.503Z,18.93
2023-01-04T00:21:19.158Z,23.30
2023-01-04T00:23:50.432Z,23.50
2023-01-04T00:26:20.424Z,29.63
2023-01-04T00:28:54.278Z,27.60
2023-01-04T00:31:24.535Z,30.40
2023-01-04T00:33:54.516Z,24.83
2023-01-04T00:36:22.623Z,24.93
2023-01-04T00:39:07.463Z,25.63
2023-01-04T00:41:58.024Z,23.30
2023-01-04T00:44:26.099Z,23.50
2023-01-04T00:46:54.463Z,23.40
2023-01-04T00:49:22.545Z,24.10
2023-01-04T00:51:50.434Z,20.30
2023-01-04T00:54:20.026Z,26.07
2023-01-04T00:56:48.435Z,26.80
2023-01-04T00:59:18.196Z,26.20
2023-01-04T01:01:48.173Z,22.50
2023-01-04T01:04:18.943Z,21.13
2023-01-04T01:06:47.480Z,23.10
2023-01-04T01:09:15.580Z,20.93
2023-01-04T01:11:45.120Z,21.30
2023-01-04T01:14:18.240Z,20.63
2023-01-04T01:17:03.702Z,25.23
2023-01-04T01:19:32.130Z,24.90
2023-01-04T01:22:00.306Z,26.73
2023-01-04T01:24:28.802Z,29.50
2023-01-04T01:26:58.074Z,27.50
2023-01-04T01:29:26.416Z,22.50
2023-01-04T01:31:54.581Z,26.63
2023-01-04T01:34:22.644Z,25.97
2023-01-04T01:36:50.943Z,27.00
2023-01-04T01:39:18.940Z,28.00
2023-01-04T01:41:46.975Z,28.90
2023-01-04T01:44:52.432Z,29.07
2023-01-04T01:47:24.421Z,25.40
2023-01-04T01:49:54.588Z,26.80
2023-01-04T01:52:28.050Z,23.60
2023-01-04T01:55:00.832Z,23.40
2023-01-04T01:57:32.328Z,29.80
2023-01-04T02:00:04.885Z,24.60
2023-01-04T02:02:50.819Z,24.60
2023-01-04T02:05:20.313Z,26.10
2023-01-04T02:07:49.184Z,25.63
2023-01-04T02:10:17.533Z,25.30
2023-01-04T02:12:47.020Z,23.63
2023-01-04T02:15:15.006Z,21.00
2023-01-04T02:17:55.203Z,24.57
2023-01-04T02:20:39.522Z,23.97
2023-01-04T02:23:46.540Z,22.17
2023-01-04T02:26:45.804Z,20.80
2023-01-04T02:29:38.845Z,19.83
2023-01-04T02:32:15.312Z,23.83
2023-01-04T02:34:50.158Z,24.00
2023-01-04T02:37:27.969Z,24.40
2023-01-04T02:40:05.120Z,24.50
2023-01-04T02:42:58.709Z,26.17
2023-01-04T02:45:32.263Z,30.00
2023-01-04T02:48:24.098Z,25.83
2023-01-04T02:50:54.160Z,25.97
2023-01-04T02:53:25.421Z,28.97
2023-01-04T02:56:05.482Z,24.80
2023-01-04T02:58:59.103Z,28.80
2023-01-04T03:01:53.987Z,26.93
2023-01-04T03:04:52.350Z,27.77
2023-01-04T03:07:27.132Z,31.67
2023-01-04T03:10:03.560Z,35.10
2023-01-04T03:12:38.665Z,32.27
2023-01-04T03:15:13.049Z,32.40
2023-01-04T03:17:51.263Z,29.67
2023-01-04T03:20:21.905Z,25.30
2023-01-04T03:23:13.730Z,23.83
2023-01-04T03:26:04.253Z,28.63
2023-01-04T03:28:53.420Z,25.80
2023-01-04T03:31:43.495Z,24.70
2023-01-04T03:34:41.073Z,20.90
2023-01-04T03:37:17.625Z,21.53
2023-01-04T03:40:25.273Z,21.40
2023-01-04T03:43:17.819Z,22.57
2023-01-04T03:46:08.702Z,22.43
2023-01-04T03:48:41.092Z,23.80
2023-01-04T03:51:15.528Z,21.70
2023-01-04T03:53:55.635Z,23.27
2023-01-04T03:56:25.322Z,21.47
2023-01-04T03:58:54.858Z,23.17
2023-01-04T04:01:26.014Z,19.90
2023-01-04T04:04:12.279Z,23.90
2023-01-04T04:06:58.369Z,25.90
2023-01-04T04:09:29.483Z,22.50
2023-01-04T04:11:57.494Z,23.67
2023-01-04T04:14:26.047Z,19.53
2023-01-04T04:16:53.985Z,19.50
2023-01-04T04:19:24.605Z,23.57
2023-01-04T04:21:52.664Z,21.63
2023-01-04T04:24:24.266Z,24.70
2023-01-04T04:26:54.765Z,24.10
2023-01-04T04:29:23.279Z,22.20
2023-01-04T04:31:51.785Z,22.87
2023-01-04T04:34:19.828Z,22.20
2023-01-04T04:36:48.206Z,18.20
2023-01-04T04:39:16.206Z,27.97
2023-01-04T04:41:43.180Z,21.13
2023-01-04T04:44:14.197Z,22.53
2023-01-04T04:46:42.688Z,17.60
2023-01-04T04:49:11.515Z,18.80
2023-01-04T04:51:39.453Z,23.87
2023-01-04T04:54:10.208Z,24.70
2023-01-04T04:56:38.807Z,22.50
2023-01-04T04:59:07.502Z,22.33
2023-01-04T05:01:36.805Z,27.27
2023-01-04T05:04:05.195Z,20.50
2023-01-04T05:06:33.293Z,25.33
2023-01-04T05:09:02.730Z,24.87
2023-01-04T05:11:48.372Z,22.30
2023-01-04T05:14:16.227Z,27.43
2023-01-04T05:16:46.163Z,23.43
2023-01-04T05:19:14.433Z,20.90
2023-01-04T05:21:42.290Z,26.97
2023-01-04T05:24:12.748Z,23.00
2023-01-04T05:26:40.883Z,26.47
2023-01-04T05:29:28.693Z,28.67
2023-01-04T05:31:56.996Z,23.83
2023-01-04T05:34:25.036Z,19.20
2023-01-04T05:36:52.839Z,21.50
2023-01-04T05:39:20.608Z,19.13
2023-01-04T05:42:06.096Z,21.37
2023-01-04T05:44:33.883Z,23.33
2023-01-04T05:47:03.032Z,23.13
2023-01-04T05:49:30.896Z,20.40
2023-01-04T05:51:58.683Z,21.03
2023-01-04T05:54:26.631Z,21.23
2023-01-04T05:56:54.435Z,19.70
2023-01-04T05:59:22.315Z,20.93
2023-01-04T06:01:50.195Z,15.93
2023-01-04T06:04:20.265Z,18.03
2023-01-04T06:06:48.111Z,16.43
2023-01-04T06:09:15.996Z,18.20
2023-01-04T06:11:43.849Z,16.33
2023-01-04T06:14:11.797Z,18.70
2023-01-04T06:16:39.764Z,15.97
2023-01-04T06:19:07.580Z,17.33
2023-01-04T06:21:36.903Z,18.03
2023-01-04T06:24:05.117Z,16.80
2023-01-04T06:26:32.946Z,14.30
2023-01-04T06:29:00.806Z,15.63
2023-01-04T06:31:28.844Z,16.37
2023-01-04T06:33:56.939Z,19.53
2023-01-04T06:36:24.718Z,17.17
2023-01-04T06:38:58.348Z,14.53
2023-01-04T06:41:26.285Z,18.47
2023-01-04T06:43:54.368Z,16.77
2023-01-04T06:46:22.306Z,13.80
2023-01-04T06:48:50.374Z,18.70
2023-01-04T06:51:18.444Z,21.37
2023-01-04T06:53:46.436Z,16.53
2023-01-04T06:56:15.844Z,24.90
2023-01-04T06:58:43.934Z,20.03
2023-01-04T07:01:11.967Z,20.50
2023-01-04T07:03:39.935Z,18.50
2023-01-04T07:06:10.380Z,19.33
2023-01-04T07:08:38.467Z,16.17
2023-01-04T07:11:06.842Z,14.87
2023-01-04T07:13:35.994Z,15.37
2023-01-04T07:16:03.959Z,15.63
2023-01-04T07:18:33.069Z,17.30
2023-01-04T07:21:01.055Z,15.30
2023-01-04T07:23:29.134Z,21.13
2023-01-04T07:25:56.983Z,23.47
2023-01-04T07:28:42.291Z,24.07
2023-01-04T07:31:11.546Z,21.30
2023-01-04T07:33:39.529Z,19.87
2023-01-04T07:36:08.890Z,19.10
2023-01-04T07:38:36.825Z,19.30
2023-01-04T07:41:05.203Z,16.07
2023-01-04T07:43:33.263Z,18.83
2023-01-04T07:46:01.780Z,19.80
2023-01-04T07:48:31.059Z,19.97
2023-01-04T07:50:58.938Z,23.40
2023-01-04T07:53:26.828Z,20.03
2023-01-04T07:55:58.971Z,21.83
2023-01-04T07:58:27.787Z,21.10
2023-01-04T08:00:55.710Z,24.90
2023-01-04T08:03:23.591Z,23.17
2023-01-04T08:05:52.822Z,23.70
2023-01-04T08:08:20.780Z,20.23
2023-01-04T08:10:50.810Z,21.53
2023-01-04T08:13:18.702Z,15.70
2023-01-04T08:15:53.029Z,14.40
2023-01-04T08:18:20.956Z,16.67
2023-01-04T08:20:52.167Z,17.20
2023-01-04T08:23:25.832Z,15.60
2023-01-04T08:25:53.665Z,15.07
2023-01-04T08:28:21.447Z,15.13
2023-01-04T08:30:49.335Z,20.13
2023-01-04T08:33:17.269Z,19.57
2023-01-04T08:35:48.718Z,24.30
2023-01-04T08:38:58.146Z,20.87
2023-01-04T08:41:23.482Z,19.47
2023-01-04T08:43:56.804Z,23.80
2023-01-04T08:46:24.742Z,21.83
2023-01-04T08:48:53.371Z,21.70
2023-01-04T08:51:21.233Z,21.20
2023-01-04T08:53:49.181Z,22.77
2023-01-04T08:56:18.347Z,18.87
2023-01-04T08:58:46.285Z,20.07
2023-01-04T09:01:14.275Z,22.20
2023-01-04T09:03:42.792Z,19.87
2023-01-04T09:06:12.561Z,22.10
2023-01-04T09:08:42.076Z,20.20
2023-01-04T09:11:12.909Z,15.73
2023-01-04T09:13:42.786Z,21.27
2023-01-04T09:16:12.635Z,15.80
2023-01-04T09:18:40.761Z,15.53
2023-01-04T09:21:09.790Z,15.80
2023-01-04T09:23:38.617Z,14.63
2023-01-04T09:26:09.772Z,16.30
2023-01-04T09:28:38.198Z,14.20
2023-01-04T09:31:08.852Z,22.63
2023-01-04T09:34:11.997Z,14.40
2023-01-04T09:36:25.211Z,18.37
2023-01-04T09:38:53.619Z,18.63
2023-01-04T09:41:26.590Z,16.13
2023-01-04T09:43:56.587Z,22.63
2023-01-04T09:46:36.206Z,18.97
2023-01-04T09:49:16.249Z,17.27
2023-01-04T09:51:49.948Z,14.13
2023-01-04T09:54:21.692Z,16.47
2023-01-04T09:56:54.001Z,19.77
2023-01-04T09:59:26.692Z,17.20
2023-01-04T10:02:01.143Z,20.80
2023-01-04T10:04:40.831Z,17.47
2023-01-04T10:07:17.294Z,14.13
2023-01-04T10:09:45.423Z,16.00
2023-01-04T10:12:26.707Z,13.90
2023-01-04T10:15:07.402Z,17.03
2023-01-04T10:24:03.231Z,13.70
2023-01-04T10:26:38.090Z,18.53
2023-01-04T10:29:26.942Z,19.43
2023-01-04T10:31:59.337Z,21.30
2023-01-04T10:34:31.399Z,17.67
2023-01-04T10:37:01.042Z,21.93
2023-01-04T10:39:33.450Z,18.33
2023-01-04T10:42:12.183Z,19.07
2023-01-04T10:44:46.158Z,18.60
2023-01-04T10:47:21.163Z,20.00
2023-01-04T10:49:55.091Z,17.83
2023-01-04T10:52:30.203Z,16.03
2023-01-04T10:55:02.789Z,18.90
2023-01-04T10:57:37.907Z,15.30
2023-01-04T11:00:08.598Z,17.00
2023-01-04T11:02:41.076Z,18.23
2023-01-04T11:05:20.658Z,17.93
2023-01-04T11:07:54.498Z,20.50
2023-01-04T11:10:28.515Z,16.03
2023-01-04T11:12:56.614Z,17.70
2023-01-04T11:15:24.599Z,29.07
2023-01-04T11:17:53.198Z,22.00
2023-01-04T11:20:26.720Z,22.50
2023-01-04T11:23:00.539Z,18.23
2023-01-04T11:25:35.896Z,18.80
2023-01-04T11:28:10.412Z,19.80
2023-01-04T11:30:49.454Z,20.37
2023-01-04T11:33:19.805Z,21.47
2023-01-04T11:35:51.039Z,19.60
2023-01-04T11:38:21.342Z,18.10
2023-01-04T11:40:58.587Z,18.47
2023-01-04T11:43:27.983Z,20.17
2023-01-04T11:46:01.675Z,21.50
2023-01-04T11:48:35.955Z,19.13
2023-01-04T11:51:06.619Z,18.37
2023-01-04T11:53:36.284Z,19.80
2023-01-04T11:56:13.625Z,20.50
2023-01-04T11:58:42.600Z,19.00
2023-01-04T12:01:22.500Z,25.03
2023-01-04T12:03:51.148Z,24.20
2023-01-04T12:06:23.452Z,24.23
2023-01-04T12:08:51.424Z,22.30
2023-01-04T12:11:29.511Z,21.27
2023-01-04T12:13:59.008Z,19.10
2023-01-04T12:16:41.337Z,24.30
2023-01-04T12:19:14.596Z,20.70
2023-01-04T12:21:46.151Z,25.10
2023-01-04T12:24:19.880Z,23.13
2023-01-04T12:26:48.795Z,21.20
2023-01-04T12:29:55.392Z,23.57
2023-01-04T12:32:46.854Z,21.17
2023-01-04T12:36:00.779Z,22.03
2023-01-04T12:39:04.948Z,19.77
2023-01-04T12:42:18.697Z,26.97
2023-01-04T12:45:16.464Z,26.43
2023-01-04T12:48:04.411Z,20.27
2023-01-04T12:50:32.368Z,21.10
2023-01-04T12:53:29.940Z,27.47
2023-01-04T12:55:56.506Z,22.00
2023-01-04T13:02:23.662Z,21.67
2023-01-04T13:05:17.005Z,26.80
2023-01-04T13:07:44.916Z,24.67
2023-01-04T13:10:32.443Z,22.13
2023-01-04T13:13:20.469Z,26.10
2023-01-04T13:16:00.137Z,23.77
2023-01-04T13:18:37.372Z,21.63
2023-01-04T13:21:12.779Z,20.83
2023-01-04T13:23:49.521Z,24.47
2023-01-04T13:26:48.349Z,23.83
2023-01-04T13:29:21.889Z,23.97
2023-01-04T13:31:53.322Z,24.23
2023-01-04T13:34:24.618Z,18.90
2023-01-04T13:37:17.213Z,22.37
2023-01-04T13:39:48.502Z,23.53
2023-01-04T13:42:25.151Z,22.10
2023-01-04T13:45:22.596Z,23.37
2023-01-04T13:47:52.684Z,22.07
2023-01-04T13:50:39.971Z,20.77
2023-01-04T13:53:09.073Z,24.57
2023-01-04T13:55:38.313Z,26.13
2023-01-04T13:58:08.634Z,27.43
2023-01-04T14:00:45.597Z,20.17
2023-01-04T14:03:23.202Z,18.17
2023-01-04T14:05:54.280Z,17.00
2023-01-04T14:08:29.621Z,20.90
2023-01-04T14:10:57.783Z,17.13
2023-01-04T14:13:25.621Z,18.40
2023-01-04T14:16:11.766Z,27.07
2023-01-04T14:18:39.961Z,21.20
2023-01-04T14:21:16.483Z,24.23
2023-01-04T14:23:44.464Z,19.47
2023-01-04T14:26:30.323Z,24.00
2023-01-04T14:28:58.308Z,24.23
2023-01-04T14:31:34.068Z,21.70
2023-01-04T14:34:07.331Z,20.63
2023-01-04T14:36:37.097Z,20.90
2023-01-04T14:39:30.042Z,17.33
2023-01-04T14:41:59.842Z,21.20
2023-01-04T14:44:30.919Z,20.70
2023-01-04T14:47:04.618Z,17.93
2023-01-04T14:49:32.841Z,21.70
2023-01-04T14:52:02.251Z,18.60
2023-01-04T14:54:31.669Z,19.50
2023-01-04T14:57:00.110Z,21.40
2023-01-04T14:59:28.645Z,22.77
2023-01-04T15:01:58.073Z,20.00
2023-01-04T15:04:27.575Z,22.87
2023-01-04T15:06:57.828Z,22.00
2023-01-04T15:09:26.103Z,23.77
2023-01-04T15:11:54.128Z,21.67
2023-01-04T15:14:22.429Z,22.07
2023-01-04T15:16:50.648Z,26.13
2023-01-04T15:19:18.691Z,22.33
2023-01-04T15:21:47.941Z,21.53
2023-01-04T15:24:15.802Z,24.90
2023-01-04T15:26:43.716Z,23.90
2023-01-04T15:29:11.653Z,25.43
2023-01-04T15:31:41.591Z,19.90
2023-01-04T15:34:10.738Z,20.70
2023-01-04T15:36:40.762Z,22.77
2023-01-04T15:39:13.247Z,21.60
2023-01-04T15:41:58.863Z,19.00
2023-01-04T15:44:26.901Z,19.63
2023-01-04T15:46:55.503Z,22.83
2023-01-04T15:49:23.571Z,21.53
2023-01-04T15:51:51.886Z,20.00
2023-01-04T15:54:21.908Z,24.90
2023-01-04T15:56:50.108Z,22.30
2023-01-04T15:59:18.427Z,22.90
2023-01-04T16:01:47.270Z,24.27
2023-01-04T16:04:15.791Z,23.50
2023-01-04T16:06:43.669Z,21.93
2023-01-04T16:09:14.593Z,24.67
2023-01-04T16:11:57.755Z,27.10
2023-01-04T16:14:25.618Z,23.80
2023-01-04T16:16:53.653Z,23.27
2023-01-04T16:19:21.539Z,24.73
2023-01-04T16:21:49.472Z,34.90
2023-01-04T16:24:44.856Z,23.87
2023-01-04T16:27:06.579Z,26.97
2023-01-04T16:29:34.870Z,26.43
2023-01-04T16:32:02.799Z,28.17
2023-01-04T16:34:30.729Z,33.17
2023-01-04T16:36:58.648Z,30.10
2023-01-04T16:39:57.262Z,28.63
2023-01-04T16:42:15.653Z,29.40
2023-01-04T16:44:43.470Z,28.80
2023-01-04T16:47:11.443Z,33.20
2023-01-04T16:49:39.502Z,31.80
2023-01-04T16:52:10.531Z,26.77
2023-01-04T16:54:38.490Z,31.90
2023-01-04T16:57:06.359Z,30.10
2023-01-04T16:59:35.614Z,33.37
2023-01-04T17:02:03.676Z,37.27
2023-01-04T17:04:31.601Z,127.20
2023-01-04T17:06:59.624Z,47.63
2023-01-04T17:09:27.475Z,51.60
2023-01-04T17:15:07.999Z,40.50
2023-01-04T17:17:38.666Z,38.50
2023-01-04T17:20:07.868Z,37.90
2023-01-04T17:22:35.779Z,36.67
2023-01-04T17:25:05.969Z,30.37
2023-01-04T17:27:35.862Z,35.97
2023-01-04T17:30:05.853Z,30.43
2023-01-04T17:32:33.635Z,31.70
2023-01-04T17:35:01.433Z,37.17
2023-01-04T17:37:29.272Z,33.77
2023-01-04T17:39:57.125Z,31.40
2023-01-04T17:42:24.972Z,34.50
2023-01-04T17:44:53.477Z,56.90
2023-01-04T17:47:22.865Z,35.70
2023-01-04T17:49:50.743Z,35.13
2023-01-04T17:52:24.575Z,34.13
2023-01-04T17:54:58.923Z,35.63
2023-01-04T17:57:27.094Z,36.30
2023-01-04T17:59:54.919Z,38.20
2023-01-04T18:02:24.165Z,35.63
2023-01-04T18:04:52.851Z,31.23
2023-01-04T18:07:24.981Z,32.87
2023-01-04T18:09:53.146Z,32.67
2023-01-04T18:12:22.594Z,31.20
2023-01-04T18:14:50.689Z,35.20
2023-01-04T18:17:18.580Z,36.27
2023-01-04T18:19:47.962Z,33.17
2023-01-04T18:22:16.456Z,38.37
2023-01-04T18:24:44.344Z,34.20
2023-01-04T18:27:23.096Z,38.60
2023-01-04T18:29:52.569Z,36.07
2023-01-04T18:32:20.511Z,35.10
2023-01-04T18:34:49.787Z,34.00
2023-01-04T18:37:18.637Z,33.10
2023-01-04T18:39:47.325Z,35.90
2023-01-04T18:42:15.409Z,36.30
2023-01-04T18:44:48.572Z,35.53
2023-01-04T18:47:18.153Z,36.00
2023-01-04T18:49:46.138Z,31.87
2023-01-04T18:52:15.528Z,31.70
2023-01-04T18:54:45.068Z,42.13
2023-01-04T18:57:13.623Z,42.57
2023-01-04T18:59:41.750Z,38.97
2023-01-04T19:02:16.482Z,31.30
2023-01-04T19:04:44.983Z,31.23
2023-01-04T19:07:13.062Z,31.30
2023-01-04T19:09:42.873Z,30.83
2023-01-04T19:12:11.430Z,28.97
2023-01-04T19:14:39.376Z,31.50
2023-01-04T19:17:08.179Z,33.73
2023-01-04T19:19:36.524Z,29.87
2023-01-04T19:22:04.846Z,29.80
2023-01-04T19:24:32.673Z,37.80
2023-01-04T19:27:05.027Z,29.23
2023-01-04T19:29:36.158Z,23.67
2023-01-04T19:32:04.447Z,31.07
2023-01-04T19:34:32.316Z,27.57
2023-01-04T19:37:00.636Z,36.10
2023-01-04T19:39:28.541Z,29.33
2023-01-04T19:41:56.500Z,29.80
2023-01-04T19:44:25.749Z,29.33
2023-01-04T19:46:53.625Z,29.47
2023-01-04T19:49:21.454Z,27.67
2023-01-04T19:51:51.570Z,27.97
2023-01-04T19:54:25.206Z,28.73
2023-01-04T19:56:54.659Z,25.40
2023-01-04T19:59:22.997Z,25.20
2023-01-04T20:01:55.260Z,25.90
2023-01-04T20:04:23.179Z,29.73
2023-01-04T20:06:51.066Z,21.63
2023-01-04T20:09:24.602Z,19.60
2023-01-04T20:11:53.507Z,20.60
2023-01-04T20:14:21.824Z,18.73
2023-01-04T20:16:49.694Z,21.27
2023-01-04T20:19:19.428Z,19.70
2023-01-04T20:21:47.304Z,22.87
2023-01-04T20:24:15.117Z,20.50
2023-01-04T20:26:43.074Z,17.97
2023-01-04T20:29:10.965Z,22.73
2023-01-04T20:31:45.252Z,20.03
2023-01-04T20:34:13.710Z,19.30
2023-01-04T20:36:42.961Z,20.43
2023-01-04T20:39:10.927Z,17.23
2023-01-04T20:41:59.425Z,17.40
2023-01-04T20:44:26.469Z,15.87
2023-01-04T20:46:54.382Z,20.77
2023-01-04T20:49:23.823Z,19.10
2023-01-04T20:51:53.177Z,20.87
2023-01-04T20:54:21.075Z,19.03
2023-01-04T20:56:48.983Z,19.30
2023-01-04T20:59:16.835Z,15.40
2023-01-04T21:01:44.822Z,20.50
2023-01-04T21:04:15.825Z,17.90
2023-01-04T21:06:43.990Z,18.90
2023-01-04T21:09:13.308Z,15.17
2023-01-04T21:11:41.191Z,16.50
2023-01-04T21:14:11.104Z,17.83
2023-01-04T21:16:41.335Z,17.67
2023-01-04T21:19:09.446Z,16.43
2023-01-04T21:21:37.619Z,19.83
2023-01-04T21:24:06.467Z,19.63
2023-01-04T21:26:35.666Z,19.20
2023-01-04T21:29:03.768Z,15.27
2023-01-04T21:31:31.708Z,18.10
2023-01-04T21:33:59.992Z,18.10
2023-01-04T21:36:28.539Z,19.57
2023-01-04T21:38:57.532Z,26.70
2023-01-04T21:41:26.480Z,19.77
2023-01-04T21:43:57.455Z,16.43
2023-01-04T21:46:26.736Z,21.07
2023-01-04T21:48:56.331Z,23.90
2023-01-04T21:51:24.391Z,20.73
2023-01-04T21:53:52.504Z,21.23
2023-01-04T21:56:22.935Z,21.97
2023-01-04T21:58:54.167Z,21.00
2023-01-04T22:01:34.088Z,21.90
2023-01-04T22:04:03.037Z,21.87
2023-01-04T22:06:32.951Z,26.60
2023-01-04T22:09:00.879Z,25.07
2023-01-04T22:11:28.804Z,25.80
2023-01-04T22:13:56.925Z,23.80
2023-01-04T22:16:26.350Z,23.63
2023-01-04T22:18:54.236Z,22.93
2023-01-04T22:21:23.809Z,23.33
2023-01-04T22:23:52.128Z,21.53
2023-01-04T22:26:20.233Z,23.93
2023-01-04T22:28:48.111Z,22.97
2023-01-04T22:31:16.707Z,22.03
2023-01-04T22:33:46.015Z,25.60
2023-01-04T22:36:21.946Z,26.43
2023-01-04T22:38:51.651Z,25.63
2023-01-04T22:41:21.356Z,25.03
2023-01-04T22:43:54.634Z,16.30
2023-01-04T22:46:22.508Z,25.23
2023-01-04T22:48:51.865Z,22.03
2023-01-04T22:51:21.026Z,20.70
2023-01-04T22:53:49.263Z,14.60
2023-01-04T22:56:20.828Z,13.53
2023-01-04T22:58:53.014Z,13.47
2023-01-04T23:01:22.481Z,14.07
2023-01-04T23:03:52.752Z,12.27
2023-01-04T23:06:21.509Z,14.77
2023-01-04T23:08:49.680Z,13.27
2023-01-04T23:11:19.449Z,15.17
2023-01-04T23:13:47.556Z,12.50
2023-01-04T23:16:16.898Z,12.23
2023-01-04T23:18:45.360Z,14.80
2023-01-04T23:21:15.503Z,13.17
2023-01-04T23:23:44.389Z,11.80
2023-01-04T23:26:16.350Z,16.40
2023-01-04T23:28:45.004Z,14.70
2023-01-04T23:31:14.820Z,12.83
2023-01-04T23:33:43.162Z,13.60
2023-01-04T23:36:15.261Z,11.27
2023-01-04T23:38:45.101Z,11.77
2023-01-04T23:41:13.143Z,13.90
2023-01-04T23:43:41.081Z,13.30
2023-01-04T23:48:36.706Z,15.50
2023-01-04T23:51:05.060Z,13.07
2023-01-04T23:53:34.407Z,14.17
2023-01-04T23:56:05.512Z,12.43
2023-01-04T23:58:34.085Z,12.30
